Time;durP1;ratioP1;P1;durP2;ratioP2;P2;SDS_P1;SDS_P2;PMS_P1;PMS_P2;Temp;Humidity;BMP_temperature;BMP_pressure;BME280_temperature;BME280_humidity;BME280_pressure;Samples;Min_cycle;Max_cycle;Signal;HPM_P1;HPM_P2
2024/03/20 00:02:24;;;;;;;;;;;2.30;96.10;;;;;;5113500;28;19926;-73
2024/03/20 00:04:51;;;;;;;;;;;2.30;96.00;;;;;;5113332;28;19915;-73
2024/03/20 00:07:17;;;;;;;;;;;2.20;96.50;;;;;;5095031;28;19912;-74
2024/03/20 00:09:42;;;;;;;;;;;2.20;96.80;;;;;;5113427;28;19908;-74
2024/03/20 00:12:08;;;;;;;;;;;2.30;96.90;;;;;;5095486;28;19904;-74
2024/03/20 00:14:33;;;;;;;;;;;2.20;97.30;;;;;;5113635;28;19904;-74
2024/03/20 00:17:01;;;;;;;;;;;2.30;97.70;;;;;;5095028;28;19908;-74
2024/03/20 00:19:30;;;;;;;;;;;2.10;97.70;;;;;;5113268;28;19922;-74
2024/03/20 00:21:56;;;;;;;;;;;2.10;98.00;;;;;;5113061;28;19910;-74
2024/03/20 00:24:22;;;;;;;;;;;2.00;98.50;;;;;;5094547;28;20010;-72
2024/03/20 00:26:47;;;;;;;;;;;2.00;99.10;;;;;;5113238;28;19904;-73
2024/03/20 00:29:15;;;;;;;;;;;2.00;99.30;;;;;;5113018;28;19912;-74
2024/03/20 00:31:40;;;;;;;;;;;2.00;99.60;;;;;;5113060;28;20253;-74
2024/03/20 00:34:06;;;;;;;;;;;2.00;99.80;;;;;;5094586;28;20413;-73
2024/03/20 00:36:31;;;;;;;;;;;2.00;99.90;;;;;;5094624;28;19904;-74
2024/03/20 00:38:57;;;;;;;;;;;2.00;99.90;;;;;;5094615;28;19915;-74
2024/03/20 00:41:22;;;;;;;;;;;2.00;99.90;;;;;;5112627;28;19908;-73
2024/03/20 00:43:48;;;;;;;;;;;2.10;99.90;;;;;;5111854;28;19907;-74
2024/03/20 00:46:13;;;;;;;;;;;2.10;99.90;;;;;;5112619;28;20364;-74
2024/03/20 00:48:39;;;;;;;;;;;2.10;99.90;;;;;;5094026;28;20022;-74
2024/03/20 00:51:05;;;;;;;;;;;2.20;99.90;;;;;;5094251;28;20372;-73
2024/03/20 00:53:30;;;;;;;;;;;2.20;99.90;;;;;;5094349;28;19947;-74
2024/03/20 00:55:56;;;;;;;;;;;2.20;99.90;;;;;;5094607;28;19911;-74
2024/03/20 00:58:21;;;;;;;;;;;2.20;99.90;;;;;;5094162;28;19911;-74
2024/03/20 01:00:47;;;;;;;;;;;2.30;99.90;;;;;;5112413;28;19947;-74
2024/03/20 01:03:13;;;;;;;;;;;2.20;99.90;;;;;;5094400;28;20416;-74
2024/03/20 01:05:38;;;;;;;;;;;2.30;99.90;;;;;;5094070;28;20287;-74
2024/03/20 01:08:04;;;;;;;;;;;2.30;99.90;;;;;;5111752;28;19916;-74
2024/03/20 01:10:30;;;;;;;;;;;2.20;99.90;;;;;;5093899;28;19919;-74
2024/03/20 01:12:55;;;;;;;;;;;2.10;99.90;;;;;;5093643;28;19984;-74
2024/03/20 01:15:21;;;;;;;;;;;2.10;99.90;;;;;;5112148;28;19918;-74
2024/03/20 01:17:46;;;;;;;;;;;2.10;99.90;;;;;;5094121;28;19922;-74
2024/03/20 01:20:12;;;;;;;;;;;2.00;99.90;;;;;;5093896;28;19937;-73
2024/03/20 01:22:38;;;;;;;;;;;1.90;99.90;;;;;;5112008;28;20376;-74
2024/03/20 01:25:04;;;;;;;;;;;1.90;99.90;;;;;;5111857;28;19915;-74
2024/03/20 01:27:30;;;;;;;;;;;1.80;99.90;;;;;;5093549;28;19955;-74
2024/03/20 01:29:56;;;;;;;;;;;1.80;99.90;;;;;;5112064;28;19992;-74
2024/03/20 01:32:21;;;;;;;;;;;1.80;99.90;;;;;;5093677;28;20006;-74
2024/03/20 01:34:47;;;;;;;;;;;1.90;99.90;;;;;;5093809;28;19907;-73
2024/03/20 01:37:13;;;;;;;;;;;2.20;99.90;;;;;;5093686;28;19904;-74
2024/03/20 01:39:38;;;;;;;;;;;2.00;99.90;;;;;;5111772;28;19994;-75
2024/03/20 01:42:04;;;;;;;;;;;2.00;99.90;;;;;;5093905;28;19904;-74
2024/03/20 01:44:30;;;;;;;;;;;1.90;99.90;;;;;;5111650;28;19903;-74
2024/03/20 01:46:55;;;;;;;;;;;1.90;99.90;;;;;;5112265;28;19953;-74
2024/03/20 01:49:21;;;;;;;;;;;1.80;99.90;;;;;;5111927;28;19903;-74
2024/03/20 01:51:46;;;;;;;;;;;1.90;99.90;;;;;;5111948;28;20474;-73
2024/03/20 01:54:13;;;;;;;;;;;1.70;99.90;;;;;;5095265;28;19907;-73
2024/03/20 01:56:39;;;;;;;;;;;1.60;99.90;;;;;;5116816;28;19907;-74
2024/03/20 01:59:04;;;;;;;;;;;1.60;99.90;;;;;;5096100;28;19969;-74
2024/03/20 02:01:30;;;;;;;;;;;1.50;99.90;;;;;;5092923;28;19904;-72
2024/03/20 02:03:57;;;;;;;;;;;1.50;99.90;;;;;;5111389;28;19904;-74
2024/03/20 02:06:24;;;;;;;;;;;1.50;99.90;;;;;;5111309;28;19904;-72
2024/03/20 02:08:51;;;;;;;;;;;1.60;99.90;;;;;;5092878;28;19922;-73
2024/03/20 02:11:16;;;;;;;;;;;1.60;99.90;;;;;;5111494;28;20311;-74
2024/03/20 02:13:49;;;;;;;;;;;1.60;99.90;;;;;;5088654;28;19929;-72
2024/03/20 02:16:15;;;;;;;;;;;1.50;99.90;;;;;;5119021;28;19907;-75
2024/03/20 02:18:41;;;;;;;;;;;1.50;99.90;;;;;;5116883;28;20329;-75
2024/03/20 02:21:08;;;;;;;;;;;1.40;99.90;;;;;;5094737;28;19908;-75
2024/03/20 02:23:34;;;;;;;;;;;1.40;99.90;;;;;;5102290;28;19931;-75
2024/03/20 02:25:59;;;;;;;;;;;1.30;99.90;;;;;;5101251;28;20601;-74
2024/03/20 02:28:25;;;;;;;;;;;1.30;99.90;;;;;;5113639;28;19918;-74
2024/03/20 02:30:50;;;;;;;;;;;1.30;99.90;;;;;;5093098;28;19911;-74
2024/03/20 02:33:16;;;;;;;;;;;1.30;99.90;;;;;;5092924;28;19907;-73
2024/03/20 02:35:41;;;;;;;;;;;1.30;99.90;;;;;;5092524;28;19904;-73
2024/03/20 02:38:07;;;;;;;;;;;1.30;99.90;;;;;;5110506;28;19910;-73
2024/03/20 02:40:32;;;;;;;;;;;1.40;99.90;;;;;;5092690;28;19914;-73
2024/03/20 02:42:57;;;;;;;;;;;1.40;99.90;;;;;;5092327;28;19930;-73
2024/03/20 02:45:23;;;;;;;;;;;1.40;99.90;;;;;;5092152;28;20283;-74
2024/03/20 02:47:49;;;;;;;;;;;1.50;99.90;;;;;;5110528;28;19919;-74
2024/03/20 02:50:14;;;;;;;;;;;1.50;99.90;;;;;;5110432;28;20295;-72
2024/03/20 02:52:40;;;;;;;;;;;1.50;99.90;;;;;;5110387;28;20682;-74
2024/03/20 02:55:06;;;;;;;;;;;1.40;99.90;;;;;;5092148;28;19910;-74
2024/03/20 02:57:31;;;;;;;;;;;1.30;99.90;;;;;;5110460;28;19912;-74
2024/03/20 02:59:57;;;;;;;;;;;1.30;99.90;;;;;;5091865;28;19911;-74
2024/03/20 03:02:23;;;;;;;;;;;1.20;99.90;;;;;;5091950;28;19908;-74
2024/03/20 03:04:49;;;;;;;;;;;1.20;99.90;;;;;;5110837;28;20268;-74
2024/03/20 03:07:15;;;;;;;;;;;1.20;99.90;;;;;;5094284;28;20303;-74
2024/03/20 03:09:41;;;;;;;;;;;1.20;99.90;;;;;;5114790;28;20363;-74
2024/03/20 03:12:06;;;;;;;;;;;1.10;99.90;;;;;;5096324;28;19918;-74
2024/03/20 03:14:32;;;;;;;;;;;1.00;99.90;;;;;;5096042;28;19908;-73
2024/03/20 03:16:57;;;;;;;;;;;1.00;99.90;;;;;;5096135;28;19914;-74
2024/03/20 03:19:23;;;;;;;;;;;1.00;99.90;;;;;;5114412;28;19914;-73
2024/03/20 03:21:48;;;;;;;;;;;1.10;99.90;;;;;;5114072;28;19911;-72
2024/03/20 03:24:14;;;;;;;;;;;1.00;99.90;;;;;;5113773;28;19926;-74
2024/03/20 03:26:40;;;;;;;;;;;1.10;99.90;;;;;;5096431;28;19911;-74
2024/03/20 03:29:05;;;;;;;;;;;1.10;99.90;;;;;;5114218;28;20348;-74
2024/03/20 03:31:32;;;;;;;;;;;1.10;99.90;;;;;;5114183;28;20459;-73
2024/03/20 03:33:58;;;;;;;;;;;1.20;99.90;;;;;;5114336;28;19915;-74
2024/03/20 03:36:24;;;;;;;;;;;1.20;99.90;;;;;;5096334;28;20438;-73
2024/03/20 03:38:49;;;;;;;;;;;1.10;99.90;;;;;;5096048;28;19990;-74
2024/03/20 03:41:15;;;;;;;;;;;1.10;99.90;;;;;;5113919;28;20287;-74
2024/03/20 03:43:40;;;;;;;;;;;1.00;99.90;;;;;;5113834;28;19911;-74
2024/03/20 03:46:07;;;;;;;;;;;1.10;99.90;;;;;;5096012;28;19933;-75
2024/03/20 03:48:32;;;;;;;;;;;1.10;99.90;;;;;;5095417;28;19965;-74
2024/03/20 03:50:58;;;;;;;;;;;1.30;99.90;;;;;;5095825;28;19943;-75
2024/03/20 03:53:24;;;;;;;;;;;1.30;99.90;;;;;;5113781;28;19904;-74
2024/03/20 03:55:49;;;;;;;;;;;1.40;99.90;;;;;;5113945;28;19912;-74
2024/03/20 03:58:15;;;;;;;;;;;1.40;99.90;;;;;;5095266;28;19908;-74
2024/03/20 04:00:41;;;;;;;;;;;1.40;99.90;;;;;;5113750;28;20010;-73
2024/03/20 04:03:06;;;;;;;;;;;1.40;99.90;;;;;;5095370;28;19914;-74
2024/03/20 04:05:32;;;;;;;;;;;1.30;99.90;;;;;;5113546;28;20010;-74
2024/03/20 04:07:58;;;;;;;;;;;1.30;99.90;;;;;;5113541;28;19915;-73
2024/03/20 04:10:24;;;;;;;;;;;1.20;99.90;;;;;;5095119;28;19919;-74
2024/03/20 04:12:49;;;;;;;;;;;1.20;99.90;;;;;;5095159;28;19916;-73
2024/03/20 04:15:15;;;;;;;;;;;1.10;99.90;;;;;;5113370;28;19940;-74
2024/03/20 04:17:41;;;;;;;;;;;1.00;99.90;;;;;;5094976;28;19907;-74
2024/03/20 04:20:08;;;;;;;;;;;1.10;99.90;;;;;;5113178;28;19910;-73
2024/03/20 04:22:33;;;;;;;;;;;1.00;99.90;;;;;;5094906;28;19964;-73
2024/03/20 04:24:59;;;;;;;;;;;1.00;99.90;;;;;;5112980;28;19923;-73
2024/03/20 04:27:25;;;;;;;;;;;1.00;99.90;;;;;;5113029;28;19912;-72
2024/03/20 04:29:51;;;;;;;;;;;1.00;99.90;;;;;;5094970;28;19904;-73
2024/03/20 04:32:17;;;;;;;;;;;1.00;99.90;;;;;;5095067;28;19914;-74
2024/03/20 04:34:43;;;;;;;;;;;1.00;99.90;;;;;;5112891;28;19907;-73
2024/03/20 04:37:09;;;;;;;;;;;1.00;99.90;;;;;;5112889;28;19982;-74
2024/03/20 04:39:35;;;;;;;;;;;1.00;99.90;;;;;;5094868;28;19930;-73
2024/03/20 04:42:02;;;;;;;;;;;0.90;99.90;;;;;;5094720;28;20360;-73
2024/03/20 04:44:27;;;;;;;;;;;0.90;99.90;;;;;;5094872;28;20358;-73
2024/03/20 04:46:53;;;;;;;;;;;1.00;99.90;;;;;;5113842;28;19990;-73
2024/03/20 04:49:19;;;;;;;;;;;1.00;99.90;;;;;;5096085;28;20073;-73
2024/03/20 04:51:44;;;;;;;;;;;1.10;99.90;;;;;;5096337;28;19904;-73
2024/03/20 04:54:10;;;;;;;;;;;0.90;99.90;;;;;;5095578;28;19908;-73
2024/03/20 04:56:35;;;;;;;;;;;1.00;99.90;;;;;;5094257;28;20361;-73
2024/03/20 04:59:01;;;;;;;;;;;1.00;99.90;;;;;;5094314;28;19903;-74
2024/03/20 05:01:26;;;;;;;;;;;1.00;99.90;;;;;;5112441;28;19910;-74
2024/03/20 05:03:52;;;;;;;;;;;1.00;99.90;;;;;;5094000;28;19914;-73
2024/03/20 05:06:17;;;;;;;;;;;1.00;99.90;;;;;;5094252;28;19904;-72
2024/03/20 05:08:44;;;;;;;;;;;1.10;99.90;;;;;;5112520;28;20281;-73
2024/03/20 05:11:10;;;;;;;;;;;1.20;99.90;;;;;;5094016;28;19911;-73
2024/03/20 05:13:35;;;;;;;;;;;1.20;99.90;;;;;;5112118;28;19957;-73
2024/03/20 05:16:01;;;;;;;;;;;1.30;99.90;;;;;;5112169;28;19914;-73
2024/03/20 05:18:26;;;;;;;;;;;1.30;99.90;;;;;;5112088;28;19904;-73
2024/03/20 05:20:52;;;;;;;;;;;1.40;99.90;;;;;;5093871;28;20281;-73
2024/03/20 05:23:17;;;;;;;;;;;1.60;99.90;;;;;;5112207;28;19903;-73
2024/03/20 05:25:43;;;;;;;;;;;1.70;99.90;;;;;;5111854;28;19920;-73
2024/03/20 05:28:08;;;;;;;;;;;1.80;99.90;;;;;;5111961;28;19915;-73
2024/03/20 05:30:34;;;;;;;;;;;1.90;99.90;;;;;;5111489;28;19915;-73
2024/03/20 05:32:59;;;;;;;;;;;2.00;99.90;;;;;;5111614;28;19934;-73
2024/03/20 05:35:25;;;;;;;;;;;2.00;99.90;;;;;;5111361;28;19907;-74
2024/03/20 05:37:50;;;;;;;;;;;2.10;99.90;;;;;;5111959;28;20376;-74
2024/03/20 05:40:17;;;;;;;;;;;2.20;99.90;;;;;;5111856;28;19941;-74
2024/03/20 05:42:42;;;;;;;;;;;2.30;99.90;;;;;;5093419;28;19907;-72
2024/03/20 05:45:08;;;;;;;;;;;2.50;99.90;;;;;;5111723;28;19907;-73
2024/03/20 05:47:34;;;;;;;;;;;2.60;99.90;;;;;;5111537;28;20027;-74
2024/03/20 05:50:00;;;;;;;;;;;2.90;99.90;;;;;;5094169;28;20436;-74
2024/03/20 05:52:25;;;;;;;;;;;3.40;99.90;;;;;;5103235;28;19908;-74
2024/03/20 05:54:51;;;;;;;;;;;3.90;99.90;;;;;;5103020;28;20327;-73
2024/03/20 05:57:17;;;;;;;;;;;4.50;99.90;;;;;;5118463;28;19908;-74
2024/03/20 05:59:42;;;;;;;;;;;5.10;99.90;;;;;;5120065;28;19990;-74
2024/03/20 06:02:08;;;;;;;;;;;5.60;96.30;;;;;;5101891;28;20315;-73
2024/03/20 06:04:34;;;;;;;;;;;6.10;93.80;;;;;;5114944;28;20376;-74
2024/03/20 06:07:00;;;;;;;;;;;6.40;92.30;;;;;;5093800;28;19946;-72
2024/03/20 06:09:26;;;;;;;;;;;6.70;90.40;;;;;;5111473;28;19960;-74
2024/03/20 06:11:52;;;;;;;;;;;6.90;84.90;;;;;;5092566;28;19907;-73
2024/03/20 06:14:17;;;;;;;;;;;7.10;81.60;;;;;;5092820;28;19992;-74
2024/03/20 06:16:43;;;;;;;;;;;7.40;81.00;;;;;;5092399;28;19903;-74
2024/03/20 06:19:09;;;;;;;;;;;7.60;78.90;;;;;;5111025;28;19904;-72
2024/03/20 06:21:34;;;;;;;;;;;7.90;78.60;;;;;;5092630;28;19915;-74
2024/03/20 06:24:01;;;;;;;;;;;8.00;75.30;;;;;;5092318;28;20304;-74
2024/03/20 06:26:26;;;;;;;;;;;8.30;73.20;;;;;;5110823;28;20307;-74
2024/03/20 06:28:52;;;;;;;;;;;8.50;70.40;;;;;;5092326;28;19915;-74
2024/03/20 06:31:18;;;;;;;;;;;8.70;68.30;;;;;;5092967;28;20463;-74
2024/03/20 06:33:44;;;;;;;;;;;9.10;68.00;;;;;;5110572;28;19903;-74
2024/03/20 06:36:10;;;;;;;;;;;9.50;67.20;;;;;;5110563;28;19908;-76
2024/03/20 06:38:35;;;;;;;;;;;10.00;64.80;;;;;;5110520;28;20386;-74
2024/03/20 06:41:03;;;;;;;;;;;10.30;63.20;;;;;;5110343;28;19912;-74
2024/03/20 06:43:34;;;;;;;;;;;10.80;61.40;;;;;;5091946;28;19911;-75
2024/03/20 06:46:00;;;;;;;;;;;11.40;58.30;;;;;;5092003;28;20596;-72
2024/03/20 06:48:28;;;;;;;;;;;11.80;55.90;;;;;;5110408;28;19911;-72
2024/03/20 06:50:54;;;;;;;;;;;12.00;54.10;;;;;;5092088;28;19911;-72
2024/03/20 06:53:19;;;;;;;;;;;12.50;51.80;;;;;;5110306;28;20006;-72
2024/03/20 06:55:48;;;;;;;;;;;13.00;51.80;;;;;;5092486;28;20463;-72
2024/03/20 06:58:13;;;;;;;;;;;13.50;48.60;;;;;;5092451;28;19942;-72
2024/03/20 07:00:40;;;;;;;;;;;14.00;47.90;;;;;;5110271;28;19951;-73
2024/03/20 07:03:05;;;;;;;;;;;14.40;45.70;;;;;;5092143;28;19900;-72
2024/03/20 07:05:31;;;;;;;;;;;14.70;44.30;;;;;;5091940;28;19960;-75
2024/03/20 07:07:57;;;;;;;;;;;15.40;41.30;;;;;;5110323;28;19920;-74
2024/03/20 07:10:22;;;;;;;;;;;15.70;40.50;;;;;;5091907;28;19915;-75
2024/03/20 07:12:48;;;;;;;;;;;15.90;39.70;;;;;;5110216;28;19908;-74
2024/03/20 07:15:14;;;;;;;;;;;16.30;38.80;;;;;;5091742;28;19907;-73
2024/03/20 07:17:40;;;;;;;;;;;16.40;36.40;;;;;;5110228;28;19912;-72
2024/03/20 07:20:07;;;;;;;;;;;16.50;36.70;;;;;;5110217;28;19908;-72
2024/03/20 07:22:32;;;;;;;;;;;16.80;35.60;;;;;;5110198;28;19904;-73
2024/03/20 07:24:58;;;;;;;;;;;17.50;33.80;;;;;;5091679;28;19916;-73
2024/03/20 07:27:23;;;;;;;;;;;17.80;32.60;;;;;;5109819;28;20277;-72
2024/03/20 07:29:49;;;;;;;;;;;18.20;31.70;;;;;;5091745;28;19970;-72
2024/03/20 07:32:15;;;;;;;;;;;18.50;31.00;;;;;;5109993;28;19903;-72
2024/03/20 07:34:40;;;;;;;;;;;18.60;31.70;;;;;;5109907;28;19910;-73
2024/03/20 07:37:06;;;;;;;;;;;18.80;31.50;;;;;;5091698;28;19903;-73
2024/03/20 07:39:36;;;;;;;;;;;19.00;30.80;;;;;;5109891;28;19907;-73
2024/03/20 07:42:05;;;;;;;;;;;19.40;30.30;;;;;;5091561;28;19994;-75
2024/03/20 07:44:30;;;;;;;;;;;20.10;29.60;;;;;;5091524;28;19907;-75
2024/03/20 07:46:56;;;;;;;;;;;20.30;28.70;;;;;;5091763;28;19908;-75
2024/03/20 07:49:21;;;;;;;;;;;20.20;28.40;;;;;;5109758;28;20427;-71
2024/03/20 07:51:47;;;;;;;;;;;20.60;28.40;;;;;;5091566;28;20325;-75
2024/03/20 07:54:13;;;;;;;;;;;20.70;27.40;;;;;;5094165;28;19931;-75
2024/03/20 07:56:38;;;;;;;;;;;20.90;27.60;;;;;;5113741;28;19914;-75
2024/03/20 07:59:04;;;;;;;;;;;21.40;27.00;;;;;;5113747;28;20276;-70
2024/03/20 08:01:29;;;;;;;;;;;22.20;26.10;;;;;;5113463;28;19916;-73
2024/03/20 08:03:55;;;;;;;;;;;22.50;24.60;;;;;;5095213;28;19911;-73
2024/03/20 08:06:20;;;;;;;;;;;23.00;24.70;;;;;;5113560;28;19904;-71
2024/03/20 08:08:46;;;;;;;;;;;23.50;23.10;;;;;;5113319;28;19915;-73
2024/03/20 08:11:12;;;;;;;;;;;23.80;22.70;;;;;;5113383;28;20287;-73
2024/03/20 08:13:38;;;;;;;;;;;23.70;22.70;;;;;;5113350;28;20336;-72
2024/03/20 08:16:03;;;;;;;;;;;23.70;22.90;;;;;;5113209;28;20411;-72
2024/03/20 08:18:31;;;;;;;;;;;23.80;22.70;;;;;;5113339;28;19908;-72
2024/03/20 08:20:58;;;;;;;;;;;23.80;22.80;;;;;;5094880;28;20395;-73
2024/03/20 08:23:24;;;;;;;;;;;23.80;22.30;;;;;;5094780;28;19907;-73
2024/03/20 08:25:50;;;;;;;;;;;23.90;22.50;;;;;;5112884;28;19930;-72
2024/03/20 08:28:17;;;;;;;;;;;24.20;22.40;;;;;;5094660;28;19916;-73
2024/03/20 08:30:43;;;;;;;;;;;24.20;22.10;;;;;;5112900;28;20425;-73
2024/03/20 08:33:09;;;;;;;;;;;24.20;22.30;;;;;;5094649;28;19908;-70
2024/03/20 08:35:35;;;;;;;;;;;23.70;22.10;;;;;;5094548;28;19908;-73
2024/03/20 08:38:01;;;;;;;;;;;23.60;22.30;;;;;;5112777;28;19911;-72
2024/03/20 08:40:26;;;;;;;;;;;23.30;23.00;;;;;;5112921;28;20003;-73
2024/03/20 08:42:52;;;;;;;;;;;23.00;23.00;;;;;;5094510;28;20364;-73
2024/03/20 08:45:18;;;;;;;;;;;22.60;23.70;;;;;;5094754;28;19908;-73
2024/03/20 08:47:45;;;;;;;;;;;22.10;23.90;;;;;;5094369;28;19923;-72
2024/03/20 08:50:12;;;;;;;;;;;21.60;24.40;;;;;;5094522;28;20352;-73
2024/03/20 08:52:37;;;;;;;;;;;21.50;25.10;;;;;;5112936;28;19914;-75
2024/03/20 08:55:03;;;;;;;;;;;21.20;25.00;;;;;;5112508;28;19907;-74
2024/03/20 08:57:29;;;;;;;;;;;21.00;25.80;;;;;;5094135;28;20395;-76
2024/03/20 08:59:54;;;;;;;;;;;20.90;26.10;;;;;;5112312;28;19908;-73
2024/03/20 09:02:20;;;;;;;;;;;20.80;25.60;;;;;;5112331;28;19946;-73
2024/03/20 09:04:45;;;;;;;;;;;20.50;25.00;;;;;;5093130;28;19958;-72
2024/03/20 09:07:11;;;;;;;;;;;20.60;24.10;;;;;;5094110;28;20372;-72
2024/03/20 09:09:36;;;;;;;;;;;20.80;23.20;;;;;;5093947;28;19918;-73
2024/03/20 09:12:04;;;;;;;;;;;20.70;23.50;;;;;;5112140;28;19907;-71
2024/03/20 09:14:31;;;;;;;;;;;20.60;24.30;;;;;;5093790;28;19964;-72
2024/03/20 09:16:56;;;;;;;;;;;20.50;24.50;;;;;;5093891;28;19953;-73
2024/03/20 09:19:22;;;;;;;;;;;20.40;24.70;;;;;;5093765;28;19908;-74
2024/03/20 09:21:47;;;;;;;;;;;20.20;24.30;;;;;;5093769;28;19961;-74
2024/03/20 09:24:15;;;;;;;;;;;20.10;24.50;;;;;;5111871;28;20568;-74
2024/03/20 09:26:41;;;;;;;;;;;20.10;24.50;;;;;;5093572;28;19904;-72
2024/03/20 09:29:07;;;;;;;;;;;20.10;23.70;;;;;;5111643;28;20010;-73
2024/03/20 09:31:33;;;;;;;;;;;20.10;23.50;;;;;;5111497;28;19942;-74
2024/03/20 09:33:59;;;;;;;;;;;20.10;23.80;;;;;;5093456;28;19938;-74
2024/03/20 09:36:25;;;;;;;;;;;20.20;23.90;;;;;;5112076;28;19960;-73
2024/03/20 09:38:52;;;;;;;;;;;20.30;23.80;;;;;;5093348;28;19914;-73
2024/03/20 09:41:19;;;;;;;;;;;20.20;23.60;;;;;;5093587;28;19957;-73
2024/03/20 09:43:45;;;;;;;;;;;20.00;24.50;;;;;;5093717;28;19903;-74
2024/03/20 09:46:15;;;;;;;;;;;20.40;23.60;;;;;;5093262;28;19908;-74
2024/03/20 09:48:41;;;;;;;;;;;20.20;23.80;;;;;;5093143;28;19963;-73
2024/03/20 09:51:07;;;;;;;;;;;20.40;23.70;;;;;;5111682;28;20432;-74
2024/03/20 09:53:34;;;;;;;;;;;20.70;22.90;;;;;;5093160;28;19907;-74
2024/03/20 09:56:09;;;;;;;;;;;20.50;22.00;;;;;;5111565;28;19908;-73
2024/03/20 09:58:44;;;;;;;;;;;20.80;22.20;;;;;;5093335;28;19910;-73
2024/03/20 10:01:14;;;;;;;;;;;20.40;23.10;;;;;;5093551;28;19908;-73
2024/03/20 10:03:39;;;;;;;;;;;20.50;23.40;;;;;;5092724;28;19903;-74
2024/03/20 10:06:05;;;;;;;;;;;20.40;23.70;;;;;;5111395;28;19949;-73
2024/03/20 10:08:34;;;;;;;;;;;20.80;24.30;;;;;;5092842;28;19968;-74
2024/03/20 10:11:00;;;;;;;;;;;21.00;24.40;;;;;;5111165;28;20427;-74
2024/03/20 10:13:26;;;;;;;;;;;21.10;23.80;;;;;;5111033;28;19914;-74
2024/03/20 10:16:07;;;;;;;;;;;21.50;24.00;;;;;;5092529;28;19912;-74
2024/03/20 10:18:34;;;;;;;;;;;21.70;23.30;;;;;;5092671;28;19908;-74
2024/03/20 10:21:00;;;;;;;;;;;21.70;23.20;;;;;;5092716;28;19914;-73
2024/03/20 10:23:26;;;;;;;;;;;21.50;24.00;;;;;;5092550;28;19908;-73
2024/03/20 10:25:52;;;;;;;;;;;21.50;24.80;;;;;;5092258;28;20395;-73
2024/03/20 10:28:20;;;;;;;;;;;21.60;23.90;;;;;;5092489;28;19916;-74
2024/03/20 10:30:49;;;;;;;;;;;21.30;23.90;;;;;;5110649;28;20002;-74
2024/03/20 10:33:17;;;;;;;;;;;21.40;24.40;;;;;;5092389;28;20385;-73
2024/03/20 10:35:44;;;;;;;;;;;21.10;24.60;;;;;;5110643;28;19914;-74
2024/03/20 10:38:10;;;;;;;;;;;20.60;25.00;;;;;;5091947;28;19916;-74
2024/03/20 10:40:36;;;;;;;;;;;20.40;25.30;;;;;;5110511;28;19908;-74
2024/03/20 10:43:02;;;;;;;;;;;20.30;25.50;;;;;;5110553;28;20488;-74
2024/03/20 10:45:27;;;;;;;;;;;20.30;25.20;;;;;;5092132;28;19915;-73
2024/03/20 10:47:54;;;;;;;;;;;19.90;26.00;;;;;;5092075;28;20006;-74
2024/03/20 10:50:20;;;;;;;;;;;19.30;26.60;;;;;;5092254;28;19908;-74
2024/03/20 10:52:50;;;;;;;;;;;18.50;27.30;;;;;;5092093;28;19910;-74
2024/03/20 10:55:19;;;;;;;;;;;18.00;27.70;;;;;;5092780;28;19907;-73
2024/03/20 10:57:51;;;;;;;;;;;17.60;29.00;;;;;;5110519;28;19911;-74
2024/03/20 11:00:17;;;;;;;;;;;17.30;28.80;;;;;;5092295;28;19914;-73
2024/03/20 11:02:44;;;;;;;;;;;16.90;29.10;;;;;;5110315;28;20047;-73
2024/03/20 11:05:28;;;;;;;;;;;16.70;29.20;;;;;;5092063;28;19946;-74
2024/03/20 11:07:57;;;;;;;;;;;16.50;30.20;;;;;;5110148;28;20006;-73
2024/03/20 11:10:23;;;;;;;;;;;16.30;29.60;;;;;;5110211;28;20437;-73
2024/03/20 11:12:53;;;;;;;;;;;16.10;30.10;;;;;;5110504;28;19907;-72
2024/03/20 11:15:18;;;;;;;;;;;16.00;31.90;;;;;;5110140;28;20006;-73
2024/03/20 11:17:51;;;;;;;;;;;16.00;31.40;;;;;;5110204;28;20336;-73
2024/03/20 11:20:35;;;;;;;;;;;16.00;30.40;;;;;;5091801;28;19929;-73
2024/03/20 11:23:04;;;;;;;;;;;15.90;31.00;;;;;;5110112;28;19911;-73
2024/03/20 11:25:33;;;;;;;;;;;15.80;31.70;;;;;;5091717;28;20344;-73
2024/03/20 11:27:59;;;;;;;;;;;15.70;33.50;;;;;;5110858;28;19998;-74
2024/03/20 11:30:26;;;;;;;;;;;15.60;32.10;;;;;;5114374;28;20452;-73
2024/03/20 11:32:51;;;;;;;;;;;15.50;32.50;;;;;;5113893;28;20539;-73
2024/03/20 11:35:17;;;;;;;;;;;15.40;32.40;;;;;;5095775;28;19933;-73
2024/03/20 11:37:43;;;;;;;;;;;15.30;32.30;;;;;;5113868;28;19910;-72
2024/03/20 11:40:13;;;;;;;;;;;15.10;32.70;;;;;;5095646;28;19986;-73
2024/03/20 11:42:38;;;;;;;;;;;15.00;32.90;;;;;;5113979;28;19907;-73
2024/03/20 11:45:07;;;;;;;;;;;14.90;33.20;;;;;;5113898;28;19915;-73
2024/03/20 11:47:32;;;;;;;;;;;14.80;34.00;;;;;;5095511;28;19910;-73
2024/03/20 11:49:58;;;;;;;;;;;14.80;34.60;;;;;;5113883;28;20281;-73
2024/03/20 11:52:23;;;;;;;;;;;14.80;34.20;;;;;;5095511;28;20558;-73
2024/03/20 11:54:49;;;;;;;;;;;14.80;34.00;;;;;;5095295;28;19904;-72
2024/03/20 11:57:16;;;;;;;;;;;14.80;34.00;;;;;;5113659;28;19904;-73
2024/03/20 11:59:45;;;;;;;;;;;14.80;34.30;;;;;;5113732;28;19907;-72
2024/03/20 12:02:11;;;;;;;;;;;14.70;35.00;;;;;;5107073;28;20372;-73
2024/03/20 12:04:37;;;;;;;;;;;14.60;35.30;;;;;;5113397;28;20381;-73
2024/03/20 12:07:03;;;;;;;;;;;14.60;35.40;;;;;;5095590;28;19994;-73
2024/03/20 12:09:29;;;;;;;;;;;14.60;35.50;;;;;;5113428;28;19919;-72
2024/03/20 12:11:59;;;;;;;;;;;14.60;35.50;;;;;;5113443;28;20261;-73
2024/03/20 12:14:25;;;;;;;;;;;14.70;36.20;;;;;;5113375;28;19908;-73
2024/03/20 12:16:50;;;;;;;;;;;14.70;34.80;;;;;;5094915;28;19968;-72
2024/03/20 12:19:16;;;;;;;;;;;14.80;34.20;;;;;;5113210;28;20350;-73
2024/03/20 12:21:42;;;;;;;;;;;14.80;34.20;;;;;;5113248;28;20368;-72
2024/03/20 12:24:07;;;;;;;;;;;14.80;34.20;;;;;;5113150;28;19916;-72
2024/03/20 12:26:33;;;;;;;;;;;14.80;33.70;;;;;;5094953;28;19946;-72
2024/03/20 12:28:58;;;;;;;;;;;14.90;33.80;;;;;;5113036;28;19912;-73
2024/03/20 12:31:24;;;;;;;;;;;14.90;32.60;;;;;;5094755;28;19910;-71
2024/03/20 12:33:50;;;;;;;;;;;14.80;33.10;;;;;;5113150;28;19915;-73
2024/03/20 12:36:19;;;;;;;;;;;14.80;32.90;;;;;;5113108;28;19987;-73
2024/03/20 12:38:52;;;;;;;;;;;14.80;33.50;;;;;;5094345;28;19911;-73
2024/03/20 12:41:20;;;;;;;;;;;14.80;33.10;;;;;;5093693;28;19911;-72
2024/03/20 12:43:46;;;;;;;;;;;14.90;34.10;;;;;;5094560;28;19907;-73
2024/03/20 12:46:16;;;;;;;;;;;14.90;33.00;;;;;;5112641;28;19908;-73
2024/03/20 12:48:42;;;;;;;;;;;15.00;32.50;;;;;;5112778;28;20594;-73
2024/03/20 12:51:14;;;;;;;;;;;15.00;32.00;;;;;;5113027;28;19911;-72
2024/03/20 12:53:39;;;;;;;;;;;15.00;33.00;;;;;;5094311;28;19904;-73
2024/03/20 12:56:05;;;;;;;;;;;15.00;32.00;;;;;;5094676;28;20351;-74
2024/03/20 12:58:30;;;;;;;;;;;15.00;32.20;;;;;;5112796;28;19976;-73
2024/03/20 13:00:56;;;;;;;;;;;15.00;33.90;;;;;;5094213;28;19926;-72
2024/03/20 13:03:21;;;;;;;;;;;15.10;32.50;;;;;;5112435;28;19903;-73
2024/03/20 13:05:48;;;;;;;;;;;15.00;32.40;;;;;;5112441;28;19908;-73
2024/03/20 13:08:19;;;;;;;;;;;15.10;31.60;;;;;;5093992;28;19915;-72
2024/03/20 13:10:45;;;;;;;;;;;15.10;32.00;;;;;;5112088;28;20002;-73
2024/03/20 13:13:18;;;;;;;;;;;15.10;31.70;;;;;;5093946;28;20062;-74
2024/03/20 13:15:44;;;;;;;;;;;15.10;32.50;;;;;;5112312;28;19914;-74
2024/03/20 13:18:32;;;;;;;;;;;15.10;32.20;;;;;;5112015;28;19908;-72
2024/03/20 13:20:59;;;;;;;;;;;15.20;31.20;;;;;;5093969;28;19908;-73
2024/03/20 13:23:25;;;;;;;;;;;15.20;31.40;;;;;;5112063;28;19914;-73
2024/03/20 13:25:50;;;;;;;;;;;15.10;31.40;;;;;;5111824;28;19919;-72
2024/03/20 13:28:17;;;;;;;;;;;15.00;31.30;;;;;;5112057;28;19912;-73
2024/03/20 13:30:45;;;;;;;;;;;15.00;32.30;;;;;;5093509;28;19932;-72
2024/03/20 13:33:12;;;;;;;;;;;15.00;32.60;;;;;;5111781;28;19914;-73
2024/03/20 13:35:40;;;;;;;;;;;15.10;33.10;;;;;;5111858;28;19931;-73
2024/03/20 13:38:08;;;;;;;;;;;15.00;31.90;;;;;;5093355;28;19933;-73
2024/03/20 13:40:36;;;;;;;;;;;15.00;31.70;;;;;;5093465;28;19904;-73
2024/03/20 13:45:53;;;;;;;;;;;15.00;32.00;;;;;;5111644;28;19912;-73
2024/03/20 13:48:18;;;;;;;;;;;14.90;32.60;;;;;;5111603;28;20002;-73
2024/03/20 13:50:44;;;;;;;;;;;14.90;32.10;;;;;;5092554;28;19998;-73
2024/03/20 13:53:10;;;;;;;;;;;14.90;31.50;;;;;;5093349;28;19904;-73
2024/03/20 13:55:35;;;;;;;;;;;14.80;32.70;;;;;;5093029;28;19956;-72
2024/03/20 13:58:01;;;;;;;;;;;14.90;33.20;;;;;;5111374;28;20015;-73
2024/03/20 14:00:27;;;;;;;;;;;14.90;33.20;;;;;;5093021;28;19960;-73
2024/03/20 14:02:53;;;;;;;;;;;14.90;33.60;;;;;;5111148;28;19907;-73
2024/03/20 14:05:18;;;;;;;;;;;14.80;33.90;;;;;;5092848;28;20403;-72
2024/03/20 14:07:44;;;;;;;;;;;14.90;33.90;;;;;;5092950;28;19911;-72
2024/03/20 14:10:13;;;;;;;;;;;14.80;33.50;;;;;;5092870;28;20367;-74
2024/03/20 14:12:38;;;;;;;;;;;14.80;32.50;;;;;;5111199;28;19912;-72
2024/03/20 14:15:04;;;;;;;;;;;14.80;33.00;;;;;;5092870;28;19908;-72
2024/03/20 14:17:30;;;;;;;;;;;14.80;33.30;;;;;;5111012;28;19914;-72
2024/03/20 14:19:55;;;;;;;;;;;14.80;33.40;;;;;;5092504;28;19907;-72
2024/03/20 14:22:21;;;;;;;;;;;14.80;33.20;;;;;;5092658;28;19908;-71